Time;durP1;ratioP1;P1;durP2;ratioP2;P2;SDS_P1;SDS_P2;PMS_P1;PMS_P2;Temp;Humidity;BMP_temperature;BMP_pressure;BME280_temperature;BME280_humidity;BME280_pressure;Samples;Min_cycle;Max_cycle;Signal;HPM_P1;HPM_P2
2021/06/20 00:00:27;;;;;;;12.97;9.23;;;30.00;89.70;;;;;;4971903;28;20512;-65
2021/06/20 00:02:53;;;;;;;10.13;9.17;;;30.00;89.80;;;;;;4973126;28;20581;-66
2021/06/20 00:05:22;;;;;;;12.90;9.73;;;29.80;90.20;;;;;;4970226;28;20429;-66
2021/06/20 00:07:49;;;;;;;11.00;9.73;;;29.60;90.80;;;;;;4974198;28;24786;-64
2021/06/20 00:10:19;;;;;;;10.17;9.17;;;29.30;91.40;;;;;;4968836;28;20480;-65
2021/06/20 00:12:46;;;;;;;11.43;9.93;;;29.20;92.00;;;;;;4970114;28;20457;-65
2021/06/20 00:15:18;;;;;;;13.10;9.60;;;29.00;92.50;;;;;;4970385;28;20892;-64
2021/06/20 00:17:44;;;;;;;12.77;10.00;;;28.90;93.10;;;;;;4969117;28;20444;-65
2021/06/20 00:20:13;;;;;;;10.10;8.87;;;28.80;93.90;;;;;;4972060;28;20449;-65
2021/06/20 00:22:39;;;;;;;12.13;9.00;;;28.70;94.60;;;;;;4990649;23;20509;-60
2021/06/20 00:25:07;;;;;;;10.70;9.53;;;28.50;95.40;;;;;;5017293;23;20846;-65
2021/06/20 00:27:33;;;;;;;10.33;9.33;;;28.60;95.90;;;;;;4980155;28;20492;-65
2021/06/20 00:29:59;;;;;;;18.20;9.77;;;28.60;96.40;;;;;;4979616;28;21190;-65
2021/06/20 00:32:25;;;;;;;14.13;9.60;;;28.60;96.70;;;;;;4978712;28;20492;-64
2021/06/20 00:34:51;;;;;;;16.67;9.97;;;28.50;97.30;;;;;;4978518;28;20975;-65
2021/06/20 00:37:18;;;;;;;17.57;9.90;;;28.60;97.80;;;;;;4972695;28;20575;-64
2021/06/20 00:39:43;;;;;;;19.53;11.00;;;28.60;98.30;;;;;;4966956;28;20440;-64
2021/06/20 00:42:09;;;;;;;13.57;11.00;;;28.60;98.90;;;;;;4968519;28;20881;-65
2021/06/20 00:44:49;;;;;;;13.67;10.30;;;28.40;99.70;;;;;;4968664;28;20217;-65
2021/06/20 00:47:19;;;;;;;18.23;9.80;;;28.30;99.90;;;;;;4960600;28;20213;-64
2021/06/20 00:49:48;;;;;;;25.37;10.73;;;28.20;98.70;;;;;;4972976;28;20531;-64
2021/06/20 00:52:21;;;;;;;22.03;9.30;;;28.20;98.70;;;;;;4969367;28;20441;-64
2021/06/20 00:54:49;;;;;;;19.80;8.40;;;28.10;98.10;;;;;;4973821;28;20537;-65
2021/06/20 00:57:17;;;;;;;18.23;8.67;;;28.10;98.10;;;;;;4973402;28;20566;-64
2021/06/20 00:59:47;;;;;;;15.30;10.20;;;28.10;98.50;;;;;;4969197;28;20448;-64
2021/06/20 01:02:14;;;;;;;16.97;9.53;;;28.00;99.50;;;;;;4969327;28;20783;-65
2021/06/20 01:04:44;;;;;;;15.53;8.20;;;27.90;99.90;;;;;;4970447;28;20859;-65
2021/06/20 01:07:13;;;;;;;22.23;9.20;;;27.80;99.90;;;;;;4975406;28;20521;-64
2021/06/20 01:09:39;;;;;;;20.83;9.57;;;27.70;99.90;;;;;;4973292;28;20465;-63
2021/06/20 01:12:07;;;;;;;13.17;8.57;;;27.60;99.90;;;;;;4974177;28;20456;-65
2021/06/20 01:14:37;;;;;;;13.13;8.00;;;27.40;99.90;;;;;;4970795;28;20252;-64
2021/06/20 01:17:04;;;;;;;19.00;9.33;;;27.30;99.90;;;;;;4972320;28;20500;-66
2021/06/20 01:19:30;;;;;;;12.80;8.70;;;27.30;99.90;;;;;;4974952;28;20818;-64
2021/06/20 01:21:57;;;;;;;16.00;9.33;;;27.30;99.90;;;;;;4971544;28;20473;-65
2021/06/20 01:24:23;;;;;;;10.00;8.40;;;27.10;99.90;;;;;;4971510;28;20434;-66
2021/06/20 01:26:48;;;;;;;14.93;9.40;;;27.10;99.90;;;;;;4972286;28;20452;-66
2021/06/20 01:29:16;;;;;;;13.03;7.10;;;27.00;99.90;;;;;;4971397;28;20214;-65
2021/06/20 01:31:49;;;;;;;14.57;7.70;;;26.80;99.90;;;;;;4973039;28;20898;-65
2021/06/20 01:34:16;;;;;;;21.27;7.73;;;26.90;99.90;;;;;;4972123;28;20573;-67
2021/06/20 01:36:42;;;;;;;20.30;7.57;;;26.70;99.90;;;;;;4976035;28;20449;-66
2021/06/20 01:39:09;;;;;;;10.73;7.20;;;26.60;99.90;;;;;;4973190;28;20456;-67
2021/06/20 01:41:35;;;;;;;17.70;7.57;;;26.40;99.90;;;;;;4974804;28;20193;-67
2021/06/20 01:44:01;;;;;;;14.23;6.93;;;26.40;99.90;;;;;;4976348;28;20949;-64
2021/06/20 01:46:29;;;;;;;16.77;7.20;;;26.30;99.90;;;;;;4973074;28;20460;-66
2021/06/20 01:48:55;;;;;;;17.70;8.50;;;26.40;99.90;;;;;;4974083;28;20596;-65
2021/06/20 01:51:20;;;;;;;12.93;6.23;;;26.40;99.90;;;;;;4976262;28;20449;-66
2021/06/20 01:53:46;;;;;;;15.07;6.30;;;26.20;99.90;;;;;;4971090;28;20203;-65
2021/06/20 01:56:12;;;;;;;14.70;6.73;;;26.20;99.90;;;;;;4975776;28;20218;-65
2021/06/20 01:58:37;;;;;;;11.70;6.27;;;26.20;99.90;;;;;;4970478;28;20318;-65
2021/06/20 02:01:03;;;;;;;13.40;6.60;;;26.20;99.90;;;;;;4976745;28;20190;-64
2021/06/20 02:03:31;;;;;;;15.93;7.77;;;26.10;99.90;;;;;;4975357;28;20186;-64
2021/06/20 02:05:59;;;;;;;9.13;5.70;;;26.20;99.90;;;;;;4962966;28;20228;-65
2021/06/20 02:08:26;;;;;;;8.63;5.97;;;26.00;99.90;;;;;;4975237;28;20425;-64
2021/06/20 02:10:55;;;;;;;16.07;7.97;;;26.00;99.90;;;;;;4974907;28;20499;-65
2021/06/20 02:13:23;;;;;;;10.10;5.53;;;26.10;99.90;;;;;;4973073;28;20452;-65
2021/06/20 02:15:52;;;;;;;12.40;6.73;;;26.20;99.90;;;;;;4978037;28;20473;-64
2021/06/20 02:18:18;;;;;;;8.93;6.00;;;26.20;99.90;;;;;;4973798;28;20463;-65
2021/06/20 02:20:43;;;;;;;13.07;7.60;;;26.10;99.90;;;;;;4978839;28;20517;-64
2021/06/20 02:23:09;;;;;;;11.00;7.10;;;26.10;99.90;;;;;;4975915;28;20205;-66
2021/06/20 02:25:36;;;;;;;17.10;7.13;;;26.10;99.90;;;;;;4974190;28;20830;-65
2021/06/20 02:28:02;;;;;;;16.80;7.40;;;26.30;99.90;;;;;;4970434;28;20464;-66
2021/06/20 02:30:28;;;;;;;11.17;5.93;;;26.30;99.90;;;;;;4971130;28;21004;-65
2021/06/20 02:32:54;;;;;;;12.03;7.10;;;26.50;99.90;;;;;;4973313;28;20268;-65
2021/06/20 02:35:22;;;;;;;14.57;7.77;;;26.50;99.90;;;;;;4969871;28;20468;-66
2021/06/20 02:37:49;;;;;;;13.60;7.23;;;26.40;99.90;;;;;;4970841;28;20953;-66
2021/06/20 02:40:16;;;;;;;15.83;6.23;;;26.30;99.90;;;;;;4976506;28;20448;-66
2021/06/20 02:42:45;;;;;;;12.57;6.70;;;26.30;99.90;;;;;;4976003;28;20545;-65
2021/06/20 02:45:13;;;;;;;12.57;7.10;;;26.50;99.90;;;;;;4974700;28;20562;-66
2021/06/20 02:47:39;;;;;;;10.17;6.67;;;26.30;99.90;;;;;;4971554;28;20456;-66
2021/06/20 02:50:06;;;;;;;13.93;5.83;;;26.30;99.90;;;;;;4973127;28;20457;-66
2021/06/20 02:52:32;;;;;;;11.43;6.53;;;26.30;99.90;;;;;;4970760;28;20980;-66
2021/06/20 02:55:00;;;;;;;13.60;6.83;;;26.20;99.90;;;;;;4971088;28;20559;-65
2021/06/20 02:57:31;;;;;;;10.00;6.00;;;26.30;99.90;;;;;;4975412;28;20289;-64
2021/06/20 03:00:01;;;;;;;10.23;5.90;;;26.40;99.90;;;;;;4971756;28;20529;-64
2021/06/20 03:02:30;;;;;;;17.43;6.37;;;26.50;99.90;;;;;;4973889;28;20429;-65
2021/06/20 03:04:57;;;;;;;8.90;6.03;;;26.40;99.90;;;;;;4971389;28;20496;-64
2021/06/20 03:07:22;;;;;;;8.50;6.17;;;26.40;99.90;;;;;;4971276;28;20892;-65
2021/06/20 03:09:48;;;;;;;8.30;6.30;;;26.30;99.90;;;;;;4972549;28;20580;-64
2021/06/20 03:12:14;;;;;;;16.43;7.47;;;26.40;99.90;;;;;;4974253;28;20181;-64
2021/06/20 03:14:41;;;;;;;10.97;6.03;;;26.20;99.90;;;;;;4973978;28;20437;-64
2021/06/20 03:17:08;;;;;;;15.63;7.93;;;26.10;99.90;;;;;;4994825;23;21267;-62
2021/06/20 03:19:36;;;;;;;10.73;6.33;;;26.10;99.90;;;;;;4994213;23;20529;-64
2021/06/20 03:22:03;;;;;;;9.27;5.40;;;25.90;99.90;;;;;;4981538;28;20453;-64
2021/06/20 03:24:31;;;;;;;10.90;7.40;;;25.90;99.90;;;;;;4984720;28;20429;-65
2021/06/20 03:26:58;;;;;;;7.27;5.00;;;25.80;99.90;;;;;;4965194;28;20769;-65
2021/06/20 03:29:24;;;;;;;10.23;5.90;;;25.80;99.90;;;;;;4965101;28;20509;-64
2021/06/20 03:31:51;;;;;;;9.03;5.07;;;25.80;99.90;;;;;;4966033;28;20434;-65
2021/06/20 03:34:17;;;;;;;8.30;5.53;;;25.80;99.90;;;;;;4963665;28;20485;-65
2021/06/20 03:36:43;;;;;;;12.90;5.77;;;25.80;99.90;;;;;;4965924;28;20971;-65
2021/06/20 03:39:09;;;;;;;10.30;5.13;;;25.50;99.90;;;;;;4967162;28;20437;-65
2021/06/20 03:41:35;;;;;;;8.83;4.37;;;25.60;99.90;;;;;;4964367;28;20191;-65
2021/06/20 03:44:01;;;;;;;7.03;4.57;;;25.50;99.90;;;;;;4966391;28;20187;-64
2021/06/20 03:46:27;;;;;;;8.50;4.40;;;25.50;99.90;;;;;;4962010;28;20457;-64
2021/06/20 03:48:52;;;;;;;9.80;4.47;;;25.40;99.90;;;;;;4963814;28;20201;-64
2021/06/20 03:51:18;;;;;;;6.07;3.93;;;25.40;99.90;;;;;;4960832;28;20446;-64
2021/06/20 03:53:45;;;;;;;6.87;3.70;;;25.30;99.90;;;;;;4960479;28;20199;-65
2021/06/20 03:56:11;;;;;;;6.53;4.27;;;25.30;99.90;;;;;;4966828;28;20464;-64
2021/06/20 03:58:37;;;;;;;5.80;4.20;;;25.30;99.90;;;;;;4959841;28;20734;-65
2021/06/20 04:01:03;;;;;;;8.47;3.93;;;25.30;99.90;;;;;;4961912;28;20197;-64
2021/06/20 04:03:29;;;;;;;5.03;4.07;;;25.30;99.90;;;;;;4960483;28;20862;-64
2021/06/20 04:05:55;;;;;;;6.97;3.77;;;25.40;99.90;;;;;;4962349;28;20480;-64
2021/06/20 04:08:21;;;;;;;12.73;4.70;;;25.40;99.90;;;;;;4960811;28;20286;-65
2021/06/20 04:10:46;;;;;;;6.33;3.60;;;25.20;99.90;;;;;;4962609;28;20248;-65
2021/06/20 04:13:12;;;;;;;5.90;3.93;;;25.30;99.90;;;;;;4976708;23;20191;-61
2021/06/20 04:15:38;;;;;;;5.17;3.97;;;25.40;99.90;;;;;;4979254;28;20218;-61
2021/06/20 04:18:04;;;;;;;7.17;3.87;;;25.40;99.90;;;;;;4979201;28;20273;-61
2021/06/20 04:20:30;;;;;;;9.47;4.13;;;25.40;99.90;;;;;;4977769;28;20209;-60
2021/06/20 04:22:56;;;;;;;9.63;4.37;;;25.50;99.90;;;;;;4976498;28;20433;-61
2021/06/20 04:25:22;;;;;;;7.40;3.60;;;25.40;99.90;;;;;;4976662;28;20449;-61
2021/06/20 04:27:49;;;;;;;7.57;4.17;;;25.30;99.90;;;;;;4978972;28;20189;-61
2021/06/20 04:30:18;;;;;;;6.97;3.53;;;25.40;99.90;;;;;;4977617;28;20520;-61
2021/06/20 04:32:44;;;;;;;4.77;4.00;;;25.30;99.90;;;;;;4989164;23;20481;-65
2021/06/20 04:35:12;;;;;;;5.53;4.20;;;25.30;99.90;;;;;;4956658;28;20501;-65
2021/06/20 04:37:39;;;;;;;7.50;4.20;;;25.50;99.90;;;;;;4956031;23;20435;-61
2021/06/20 04:40:07;;;;;;;7.23;4.90;;;25.40;99.90;;;;;;4995141;28;21124;-62
2021/06/20 04:42:35;;;;;;;8.60;4.27;;;25.30;99.90;;;;;;4994198;23;20488;-65
2021/06/20 04:45:02;;;;;;;5.93;4.20;;;25.40;99.90;;;;;;4976269;28;20477;-63
2021/06/20 04:47:28;;;;;;;4.67;4.00;;;25.50;99.90;;;;;;4958047;28;20470;-64
2021/06/20 04:49:54;;;;;;;8.40;4.57;;;25.50;99.90;;;;;;4959647;28;21249;-65
2021/06/20 04:52:20;;;;;;;5.40;4.07;;;25.60;99.90;;;;;;4960867;28;20493;-64
2021/06/20 04:54:52;;;;;;;8.90;4.20;;;25.40;99.90;;;;;;4978234;28;20446;-65
2021/06/20 04:57:23;;;;;;;7.23;4.33;;;25.70;99.90;;;;;;4963163;28;20450;-65
2021/06/20 04:59:51;;;;;;;4.87;4.10;;;25.70;99.90;;;;;;4958774;28;20456;-65
2021/06/20 05:02:17;;;;;;;6.73;4.03;;;25.80;99.90;;;;;;4959056;28;20434;-66
2021/06/20 05:04:43;;;;;;;8.40;4.50;;;25.90;99.90;;;;;;4961639;28;20529;-64
2021/06/20 05:07:10;;;;;;;7.57;4.23;;;25.70;99.90;;;;;;4963468;28;20436;-66
2021/06/20 05:09:40;;;;;;;6.60;4.70;;;25.70;99.90;;;;;;4962575;28;20816;-65
2021/06/20 05:12:07;;;;;;;5.23;3.50;;;25.80;99.90;;;;;;4965906;28;20437;-63
2021/06/20 05:14:43;;;;;;;5.43;4.20;;;25.70;99.90;;;;;;4960487;28;20440;-65
2021/06/20 05:17:10;;;;;;;5.77;3.50;;;25.60;99.90;;;;;;4961846;28;20440;-65
2021/06/20 05:19:36;;;;;;;8.30;4.03;;;25.60;99.90;;;;;;4962145;28;20455;-65
2021/06/20 05:22:02;;;;;;;5.67;3.80;;;25.50;99.90;;;;;;4961734;28;20441;-65
2021/06/20 05:24:27;;;;;;;6.03;3.90;;;25.40;99.90;;;;;;4964757;28;20584;-65
2021/06/20 05:26:53;;;;;;;6.87;3.73;;;25.40;99.90;;;;;;4963933;28;20198;-65
2021/06/20 05:29:19;;;;;;;5.00;4.00;;;25.40;99.90;;;;;;4959849;28;20207;-65
2021/06/20 05:31:45;;;;;;;5.97;3.30;;;25.40;99.90;;;;;;4966623;28;20434;-65
2021/06/20 05:34:10;;;;;;;4.87;3.10;;;25.30;99.90;;;;;;4961507;28;20249;-65
2021/06/20 05:36:36;;;;;;;6.47;3.77;;;25.10;99.90;;;;;;4960016;28;20233;-65
2021/06/20 05:39:03;;;;;;;9.47;4.23;;;25.20;99.90;;;;;;4992925;23;20505;-59
2021/06/20 05:41:28;;;;;;;7.40;3.30;;;25.30;99.90;;;;;;4981727;28;20191;-61
2021/06/20 05:43:54;;;;;;;2.80;2.53;;;25.30;99.90;;;;;;4983642;28;20934;-61
2021/06/20 05:46:22;;;;;;;5.77;3.40;;;25.20;99.90;;;;;;4989349;23;20198;-65
2021/06/20 05:48:48;;;;;;;6.20;3.17;;;25.30;99.90;;;;;;4982441;28;20185;-64
2021/06/20 05:51:14;;;;;;;6.10;3.50;;;25.30;99.90;;;;;;4982289;28;20850;-63
2021/06/20 05:53:39;;;;;;;5.40;2.90;;;25.50;99.90;;;;;;4981399;28;20178;-63
2021/06/20 05:56:06;;;;;;;6.03;3.27;;;25.60;99.90;;;;;;4968617;28;20473;-63
2021/06/20 05:58:34;;;;;;;4.07;2.97;;;25.60;99.90;;;;;;4965033;28;20186;-64
2021/06/20 06:01:00;;;;;;;4.13;2.83;;;25.70;99.90;;;;;;4966086;28;21136;-64
2021/06/20 06:03:26;;;;;;;3.93;2.93;;;25.60;99.90;;;;;;4964662;28;20558;-64
2021/06/20 06:05:52;;;;;;;3.40;3.10;;;25.60;99.90;;;;;;4966856;28;20540;-65
2021/06/20 06:08:18;;;;;;;4.43;3.70;;;25.80;99.90;;;;;;4963551;28;20506;-65
2021/06/20 06:10:44;;;;;;;4.20;3.40;;;26.10;99.90;;;;;;4964063;28;20469;-65
2021/06/20 06:13:09;;;;;;;5.10;3.47;;;26.10;99.90;;;;;;4964183;28;20182;-66
2021/06/20 06:15:38;;;;;;;5.30;3.90;;;25.70;99.90;;;;;;4964299;28;20258;-65
2021/06/20 06:18:04;;;;;;;4.40;3.30;;;25.70;99.90;;;;;;4967698;28;20573;-65
2021/06/20 06:23:04;;;;;;;4.37;2.90;;;25.70;99.90;;;;;;4964811;28;20473;-63
2021/06/20 06:25:30;;;;;;;5.70;3.47;;;25.50;99.90;;;;;;4958354;28;20446;-64
2021/06/20 06:27:56;;;;;;;3.73;3.43;;;25.30;99.90;;;;;;4944455;28;20554;-63
2021/06/20 06:30:22;;;;;;;6.87;3.30;;;25.50;99.90;;;;;;4971594;23;20627;-65
2021/06/20 06:32:48;;;;;;;3.60;2.97;;;25.50;99.90;;;;;;4987517;28;20262;-65
2021/06/20 06:35:15;;;;;;;5.03;3.40;;;25.30;99.90;;;;;;4985325;28;20976;-64
2021/06/20 06:37:41;;;;;;;5.17;3.60;;;25.50;99.90;;;;;;4982385;28;20454;-65
2021/06/20 06:40:08;;;;;;;3.60;3.30;;;25.60;99.90;;;;;;4986176;28;21221;-63
2021/06/20 06:42:34;;;;;;;3.17;2.80;;;25.30;99.90;;;;;;4980070;28;20244;-64
2021/06/20 06:45:00;;;;;;;3.63;2.67;;;25.60;99.90;;;;;;4983124;28;20437;-64
2021/06/20 06:47:27;;;;;;;5.90;3.40;;;25.80;99.90;;;;;;4982484;28;20436;-64
2021/06/20 06:49:53;;;;;;;7.27;3.37;;;25.70;99.90;;;;;;4979268;28;20280;-64
2021/06/20 06:52:18;;;;;;;4.27;3.03;;;25.50;99.90;;;;;;4984476;28;21039;-64
2021/06/20 06:54:51;;;;;;;5.30;3.43;;;25.50;99.90;;;;;;4981533;28;20665;-64
2021/06/20 06:57:22;;;;;;;5.90;3.60;;;25.40;99.90;;;;;;4980837;28;20202;-63
2021/06/20 06:59:52;;;;;;;6.50;2.90;;;25.40;99.90;;;;;;4983352;28;20941;-64
2021/06/20 07:02:18;;;;;;;3.60;3.10;;;25.60;99.90;;;;;;4978731;28;20433;-64
2021/06/20 07:07:25;;;;;;;2.90;2.70;;;25.60;99.90;;;;;;4996650;23;20989;-63
2021/06/20 07:10:03;;;;;;;3.30;3.00;;;25.60;99.90;;;;;;4980169;28;20713;-64
2021/06/20 07:12:33;;;;;;;4.53;3.17;;;25.70;99.90;;;;;;4967959;28;20437;-64
2021/06/20 07:15:03;;;;;;;4.60;3.03;;;25.60;99.90;;;;;;4965206;28;20576;-63
2021/06/20 07:17:29;;;;;;;4.73;3.47;;;25.50;99.90;;;;;;4963535;28;20434;-63
2021/06/20 07:19:55;;;;;;;6.63;3.43;;;25.50;99.90;;;;;;4968526;28;20985;-64
2021/06/20 07:22:21;;;;;;;3.70;3.30;;;25.50;99.90;;;;;;4965971;28;20200;-64
2021/06/20 07:24:47;;;;;;;4.57;2.90;;;25.50;99.90;;;;;;4966362;28;20188;-64
2021/06/20 07:27:13;;;;;;;6.47;3.70;;;25.30;99.90;;;;;;4965677;28;20780;-65
2021/06/20 07:29:41;;;;;;;7.90;3.60;;;25.40;99.90;;;;;;4968134;28;20504;-65
2021/06/20 07:32:07;;;;;;;4.57;4.07;;;25.30;99.90;;;;;;4965445;28;20574;-64
2021/06/20 07:34:33;;;;;;;3.57;3.27;;;25.50;99.90;;;;;;4966882;28;20436;-65
2021/06/20 07:36:59;;;;;;;4.40;3.77;;;25.40;99.90;;;;;;4967987;28;20441;-65
2021/06/20 07:39:26;;;;;;;4.47;4.07;;;25.40;99.90;;;;;;4967852;28;20216;-65
2021/06/20 07:41:53;;;;;;;3.70;3.33;;;25.50;99.90;;;;;;4980158;28;20454;-65
2021/06/20 07:44:19;;;;;;;4.20;3.70;;;25.70;99.90;;;;;;4951986;28;20520;-65
2021/06/20 07:46:45;;;;;;;6.73;4.23;;;25.90;99.90;;;;;;4964551;28;20450;-65
2021/06/20 07:49:10;;;;;;;3.53;3.20;;;25.90;99.90;;;;;;4962188;28;20223;-65
2021/06/20 07:51:36;;;;;;;3.90;3.60;;;25.50;99.90;;;;;;4964979;28;20219;-65
2021/06/20 07:54:02;;;;;;;7.07;5.03;;;25.70;99.90;;;;;;4968784;28;20201;-64
2021/06/20 07:56:27;;;;;;;7.60;6.00;;;25.70;99.90;;;;;;4966340;28;20209;-66
2021/06/20 07:58:57;;;;;;;7.80;3.53;;;25.70;99.90;;;;;;4965125;28;20273;-65
2021/06/20 08:01:28;;;;;;;4.33;3.70;;;25.80;99.90;;;;;;4965980;28;20249;-64
2021/06/20 08:03:54;;;;;;;5.03;3.63;;;25.90;99.90;;;;;;4978829;28;20501;-65
2021/06/20 08:06:20;;;;;;;5.70;3.83;;;26.10;99.90;;;;;;4964988;28;20442;-64
2021/06/20 08:08:46;;;;;;;4.87;3.20;;;26.20;99.90;;;;;;4963713;28;21889;-65
2021/06/20 08:11:12;;;;;;;4.00;3.00;;;26.20;99.90;;;;;;4968227;28;20505;-65
2021/06/20 08:13:38;;;;;;;4.90;3.40;;;26.10;99.90;;;;;;4961354;28;20656;-65
2021/06/20 08:16:07;;;;;;;3.70;3.30;;;26.20;99.90;;;;;;4965232;28;20182;-65
2021/06/20 08:18:32;;;;;;;5.33;3.77;;;26.20;99.90;;;;;;4964322;28;20573;-65
2021/06/20 08:20:58;;;;;;;10.20;3.80;;;26.10;99.90;;;;;;4962868;28;20458;-65
2021/06/20 08:23:24;;;;;;;4.00;3.60;;;25.90;99.90;;;;;;4965959;28;20218;-63
2021/06/20 08:25:50;;;;;;;4.73;4.30;;;25.90;99.90;;;;;;4965246;28;21283;-65
2021/06/20 08:28:18;;;;;;;5.03;3.97;;;25.80;99.90;;;;;;4980572;23;20424;-59
2021/06/20 08:30:44;;;;;;;4.10;3.70;;;25.80;99.90;;;;;;4962828;28;20478;-60
2021/06/20 08:33:09;;;;;;;4.13;3.73;;;26.00;99.90;;;;;;4987680;23;20500;-65
2021/06/20 08:35:35;;;;;;;4.50;3.40;;;25.90;99.90;;;;;;4985202;28;20662;-65
2021/06/20 08:38:01;;;;;;;4.43;4.03;;;26.10;99.90;;;;;;4983535;28;20208;-63
2021/06/20 08:40:27;;;;;;;3.80;3.40;;;26.00;99.90;;;;;;4980533;28;20213;-63
2021/06/20 08:42:53;;;;;;;4.30;3.90;;;26.00;99.90;;;;;;4979330;28;20493;-65
2021/06/20 08:45:18;;;;;;;5.60;3.87;;;25.90;99.90;;;;;;4981049;28;20194;-65
2021/06/20 08:47:45;;;;;;;9.00;4.10;;;26.00;99.90;;;;;;4978055;28;20186;-64
2021/06/20 08:50:11;;;;;;;7.00;3.60;;;25.90;99.90;;;;;;4977803;28;20689;-65
2021/06/20 08:52:37;;;;;;;5.30;4.60;;;25.90;99.90;;;;;;4979102;28;20450;-65
2021/06/20 08:55:06;;;;;;;4.73;3.70;;;26.00;99.90;;;;;;4979143;28;20501;-65
2021/06/20 08:57:37;;;;;;;3.80;3.43;;;25.80;99.90;;;;;;4978850;28;20491;-64
2021/06/20 09:00:11;;;;;;;7.30;3.50;;;26.10;99.90;;;;;;4979543;28;20457;-65
2021/06/20 09:02:37;;;;;;;4.83;4.43;;;26.20;99.90;;;;;;4978351;28;20436;-65
2021/06/20 09:05:06;;;;;;;3.63;3.33;;;26.50;99.90;;;;;;4975520;28;20436;-64
2021/06/20 09:07:36;;;;;;;3.97;3.67;;;26.70;99.90;;;;;;4977566;28;20273;-65
2021/06/20 09:10:09;;;;;;;6.17;4.50;;;26.80;99.90;;;;;;4978942;28;20494;-64
2021/06/20 09:12:47;;;;;;;7.10;4.10;;;26.40;99.90;;;;;;4976050;28;21034;-65
2021/06/20 09:15:15;;;;;;;5.67;4.43;;;26.80;99.90;;;;;;4978037;28;20936;-64
2021/06/20 09:20:36;;;;;;;4.60;3.87;;;26.80;99.90;;;;;;4972101;23;20528;-64
2021/06/20 09:23:09;;;;;;;4.17;3.70;;;27.10;99.90;;;;;;4976793;28;20644;-64
2021/06/20 09:25:36;;;;;;;4.30;3.67;;;27.00;99.90;;;;;;4993412;23;20410;-59
2021/06/20 09:28:02;;;;;;;4.13;3.73;;;27.50;99.90;;;;;;4991887;23;20500;-63
2021/06/20 09:30:30;;;;;;;4.90;3.33;;;27.90;99.90;;;;;;4969808;28;20498;-65
2021/06/20 09:32:59;;;;;;;4.57;4.17;;;28.00;99.90;;;;;;4964502;28;20449;-63
2021/06/20 09:35:29;;;;;;;6.43;3.80;;;28.00;99.90;;;;;;4959264;28;20488;-64
2021/06/20 09:37:56;;;;;;;5.13;4.20;;;28.30;99.90;;;;;;5006421;23;20501;-64
2021/06/20 09:40:25;;;;;;;4.93;4.00;;;28.20;99.90;;;;;;4976845;28;20449;-63
2021/06/20 09:42:51;;;;;;;5.00;3.90;;;28.10;99.90;;;;;;4961144;28;20449;-63
2021/06/20 09:45:32;;;;;;;7.50;5.83;;;28.10;99.90;;;;;;4967302;28;20449;-62
2021/06/20 09:47:59;;;;;;;4.90;4.07;;;28.40;99.90;;;;;;4962779;28;20434;-63
2021/06/20 09:50:39;;;;;;;5.93;3.77;;;28.10;99.90;;;;;;4967075;28;20466;-64
2021/06/20 09:53:06;;;;;;;5.00;4.43;;;28.00;99.90;;;;;;4965245;28;20423;-64
2021/06/20 09:55:33;;;;;;;7.03;3.67;;;28.00;99.90;;;;;;4967094;28;20430;-64
2021/06/20 09:58:01;;;;;;;6.10;3.80;;;28.20;99.90;;;;;;4962203;28;20425;-64
2021/06/20 10:00:36;;;;;;;8.43;4.43;;;28.40;99.90;;;;;;4966965;28;20525;-63
2021/06/20 10:03:02;;;;;;;9.43;4.60;;;28.40;99.90;;;;;;4968549;28;20811;-64
2021/06/20 10:05:27;;;;;;;4.27;3.87;;;28.30;99.90;;;;;;5000146;23;20506;-65
2021/06/20 10:07:53;;;;;;;4.83;3.57;;;28.50;99.90;;;;;;4987620;28;20178;-64
2021/06/20 10:10:19;;;;;;;5.40;3.80;;;28.80;99.90;;;;;;4978578;28;21146;-65
2021/06/20 10:12:44;;;;;;;3.80;3.50;;;29.00;99.90;;;;;;4980145;28;20647;-64
2021/06/20 10:15:13;;;;;;;4.77;3.70;;;29.00;99.90;;;;;;4964452;28;20487;-64
2021/06/20 10:17:51;;;;;;;4.30;3.90;;;29.20;99.90;;;;;;4960314;28;20217;-65
2021/06/20 10:20:19;;;;;;;7.03;3.90;;;29.40;99.90;;;;;;4966948;28;20456;-65
2021/06/20 10:22:47;;;;;;;5.33;4.63;;;29.40;99.90;;;;;;4961693;28;20434;-64
2021/06/20 10:25:42;;;;;;;4.23;3.43;;;29.40;99.90;;;;;;4960570;28;20454;-64
2021/06/20 10:28:12;;;;;;;4.43;3.97;;;29.30;99.90;;;;;;4978681;23;20422;-61
2021/06/20 10:30:38;;;;;;;3.93;3.53;;;29.30;99.90;;;;;;4997651;23;20486;-61
2021/06/20 10:33:09;;;;;;;4.17;3.73;;;29.30;99.90;;;;;;4995978;23;20524;-65
2021/06/20 10:35:35;;;;;;;5.40;4.20;;;29.40;99.90;;;;;;4983646;28;20445;-65
2021/06/20 10:38:01;;;;;;;4.47;4.00;;;29.40;99.90;;;;;;4984649;28;20429;-64
2021/06/20 10:40:36;;;;;;;7.00;4.20;;;29.60;99.90;;;;;;4970727;28;20519;-64
2021/06/20 10:43:17;;;;;;;4.37;3.97;;;29.60;99.90;;;;;;4961203;28;20464;-64
2021/06/20 10:45:43;;;;;;;4.13;3.73;;;29.60;99.90;;;;;;4965291;28;20446;-64
2021/06/20 10:48:28;;;;;;;4.50;3.57;;;29.60;99.90;;;;;;4962698;28;20561;-65
2021/06/20 10:50:56;;;;;;;7.30;4.07;;;29.70;99.90;;;;;;4965349;28;20477;-64
2021/06/20 10:53:23;;;;;;;4.43;3.40;;;29.60;99.90;;;;;;4965038;28;20533;-64
2021/06/20 10:55:55;;;;;;;4.57;3.37;;;29.70;99.90;;;;;;4960726;28;20400;-65
2021/06/20 10:58:26;;;;;;;8.17;4.17;;;29.70;99.90;;;;;;4962893;28;20628;-65
2021/06/20 11:01:16;;;;;;;5.30;4.40;;;29.50;99.90;;;;;;4964588;28;20486;-65
2021/06/20 11:03:46;;;;;;;7.27;4.10;;;29.70;99.90;;;;;;4961555;28;20420;-65
2021/06/20 11:06:14;;;;;;;5.43;3.70;;;29.90;99.90;;;;;;4965691;28;20941;-65
2021/06/20 11:08:53;;;;;;;4.67;3.50;;;30.10;99.90;;;;;;4960575;28;20861;-65
2021/06/20 11:11:23;;;;;;;4.53;3.53;;;30.30;99.90;;;;;;4961785;28;20481;-65
2021/06/20 11:13:58;;;;;;;6.90;3.50;;;30.40;99.90;;;;;;4977212;28;20427;-65
2021/06/20 11:16:35;;;;;;;4.40;3.20;;;30.00;99.90;;;;;;4960682;28;20449;-65
2021/06/20 11:19:23;;;;;;;6.93;3.70;;;30.20;99.90;;;;;;4962850;28;20438;-65
2021/06/20 11:21:56;;;;;;;4.93;3.87;;;30.20;99.90;;;;;;4963754;28;20840;-66
2021/06/20 11:24:28;;;;;;;5.87;3.57;;;30.10;99.90;;;;;;4958701;28;20500;-65
2021/06/20 11:27:03;;;;;;;5.60;4.00;;;30.10;99.90;;;;;;4965059;28;20426;-66
2021/06/20 11:29:38;;;;;;;4.60;3.73;;;30.10;99.90;;;;;;4963202;28;20497;-65
2021/06/20 11:32:05;;;;;;;6.40;4.00;;;30.10;99.90;;;;;;4962460;28;20429;-66
2021/06/20 11:34:30;;;;;;;4.10;3.70;;;30.20;99.90;;;;;;4962720;28;21077;-65
2021/06/20 11:36:56;;;;;;;5.73;4.17;;;30.20;99.90;;;;;;4962204;28;20417;-66
2021/06/20 11:39:22;;;;;;;4.40;4.00;;;30.00;99.90;;;;;;4963181;28;20269;-64
2021/06/20 11:41:52;;;;;;;5.90;4.00;;;30.40;99.90;;;;;;4962409;28;20201;-65
2021/06/20 11:44:20;;;;;;;5.17;4.50;;;30.60;99.90;;;;;;4960973;28;20396;-66
2021/06/20 11:46:47;;;;;;;5.07;3.87;;;30.80;99.90;;;;;;4963956;28;20847;-63
2021/06/20 11:49:17;;;;;;;5.30;4.10;;;30.80;99.90;;;;;;4960025;28;20437;-65
2021/06/20 11:51:54;;;;;;;5.50;4.20;;;31.10;99.90;;;;;;4963914;28;20427;-64
2021/06/20 11:54:30;;;;;;;4.20;3.40;;;31.60;99.90;;;;;;4962339;28;20463;-64
2021/06/20 11:57:04;;;;;;;6.80;4.20;;;32.00;99.90;;;;;;4962360;28;20521;-64
2021/06/20 11:59:40;;;;;;;4.93;3.73;;;32.10;99.90;;;;;;4963304;28;20810;-64
2021/06/20 12:02:11;;;;;;;6.60;4.17;;;32.00;99.90;;;;;;4958525;28;20454;-64
2021/06/20 12:04:43;;;;;;;4.23;3.83;;;32.40;99.90;;;;;;4964506;28;20427;-63
2021/06/20 12:07:09;;;;;;;5.63;3.83;;;32.90;99.40;;;;;;4960742;28;20914;-64
2021/06/20 12:09:36;;;;;;;5.37;3.83;;;33.60;99.80;;;;;;4961280;28;20572;-64
2021/06/20 12:12:05;;;;;;;4.40;3.43;;;34.50;97.10;;;;;;4966605;28;20388;-64
2021/06/20 12:17:03;;;;;;;5.47;3.87;;;36.50;93.10;;;;;;4960335;28;20451;-63
2021/06/20 12:19:32;;;;;;;5.00;3.87;;;37.20;91.30;;;;;;4957461;28;20820;-63
2021/06/20 12:22:24;;;;;;;4.80;4.37;;;38.20;89.60;;;;;;4952634;28;20821;-63
2021/06/20 12:24:59;;;;;;;7.23;4.10;;;39.30;82.00;;;;;;4953269;28;20431;-64
2021/06/20 12:27:34;;;;;;;7.77;4.80;;;39.70;78.50;;;;;;4950858;28;20438;-65
2021/06/20 12:30:24;;;;;;;9.07;5.20;;;40.30;74.40;;;;;;4953576;28;20822;-64
2021/06/20 12:32:51;;;;;;;6.90;3.80;;;40.60;71.20;;;;;;4982762;23;20880;-75
2021/06/20 12:35:24;;;;;;;16.87;4.60;;;41.00;67.80;;;;;;4983652;28;20443;-75
2021/06/20 12:37:51;;;;;;;5.30;4.10;;;41.30;66.50;;;;;;4981944;28;20769;-76
2021/06/20 12:40:18;;;;;;;6.73;4.80;;;41.30;64.70;;;;;;4982630;28;20456;-75
2021/06/20 12:42:55;;;;;;;4.07;3.43;;;41.00;64.40;;;;;;4980308;28;21084;-76
2021/06/20 12:45:25;;;;;;;4.60;4.20;;;41.60;62.70;;;;;;4980326;28;20448;-76
2021/06/20 12:47:53;;;;;;;6.13;4.40;;;42.20;59.80;;;;;;4980089;28;20563;-76
2021/06/20 12:50:33;;;;;;;7.20;4.60;;;42.40;59.50;;;;;;4982905;28;20473;-76
2021/06/20 12:53:01;;;;;;;4.70;4.20;;;43.00;58.40;;;;;;4983170;28;20424;-76
2021/06/20 12:55:34;;;;;;;6.50;4.77;;;42.70;56.40;;;;;;4982650;28;20534;-76
2021/06/20 12:58:02;;;;;;;10.33;4.60;;;41.60;56.70;;;;;;4980919;28;20430;-76